createdAt,value
2022-08-22T00:02:56.461Z,7.60
2022-08-22T00:04:48.708Z,4.60
2022-08-22T00:10:27.803Z,4.63
2022-08-22T00:15:44.458Z,4.60
2022-08-22T00:21:21.690Z,4.10
2022-08-22T00:26:45.581Z,4.33
2022-08-22T00:32:14.405Z,4.60
2022-08-22T00:37:30.620Z,4.97
2022-08-22T00:43:08.373Z,4.30
2022-08-22T00:48:38.732Z,4.30
2022-08-22T00:54:34.610Z,4.60
2022-08-22T01:00:13.407Z,4.10
2022-08-22T01:06:19.722Z,4.67
2022-08-22T01:12:15.610Z,4.20
2022-08-22T01:18:21.385Z,4.30
2022-08-22T01:24:05.333Z,5.00
2022-08-22T01:29:38.039Z,4.30
2022-08-22T01:35:48.301Z,4.10
2022-08-22T01:41:35.781Z,4.17
2022-08-22T01:47:05.938Z,4.57
2022-08-22T01:52:50.025Z,4.87
2022-08-22T01:58:13.452Z,4.10
2022-08-22T02:03:33.226Z,4.37
2022-08-22T02:08:57.145Z,3.67
2022-08-22T02:14:32.781Z,4.70
2022-08-22T02:19:58.413Z,4.20
2022-08-22T02:25:08.956Z,5.00
2022-08-22T02:30:45.821Z,4.50
2022-08-22T02:36:15.357Z,4.07
2022-08-22T02:41:44.370Z,4.27
2022-08-22T02:47:21.149Z,4.70
2022-08-22T02:52:38.874Z,4.23
2022-08-22T02:57:56.743Z,4.53
2022-08-22T03:03:19.357Z,3.90
2022-08-22T03:09:29.715Z,4.33
2022-08-22T03:15:09.070Z,3.70
2022-08-22T03:20:21.579Z,4.57
2022-08-22T03:26:09.823Z,3.90
2022-08-22T03:31:25.325Z,4.07
2022-08-22T03:36:31.329Z,4.13
2022-08-22T03:42:02.572Z,4.30
2022-08-22T03:48:01.545Z,3.97
2022-08-22T03:53:31.018Z,4.20
2022-08-22T03:59:29.098Z,4.40
2022-08-22T04:05:09.100Z,5.13
2022-08-22T04:10:44.002Z,4.13
2022-08-22T04:16:23.411Z,4.23
2022-08-22T04:21:37.942Z,4.67
2022-08-22T04:27:36.670Z,4.20
2022-08-22T04:32:57.051Z,4.80
2022-08-22T04:38:12.061Z,4.03
2022-08-22T04:43:44.936Z,4.43
2022-08-22T04:49:24.469Z,3.93
2022-08-22T04:55:08.210Z,4.60
2022-08-22T05:00:12.013Z,4.43
2022-08-22T05:05:35.337Z,3.93
2022-08-22T05:10:51.210Z,4.30
2022-08-22T05:16:05.542Z,3.97
2022-08-22T05:21:13.936Z,4.83
2022-08-22T05:26:19.014Z,4.27
2022-08-22T05:31:32.658Z,3.77
2022-08-22T05:37:23.376Z,4.70
2022-08-22T05:42:38.856Z,4.80
2022-08-22T05:47:49.241Z,4.87
2022-08-22T05:53:07.721Z,4.97
2022-08-22T05:58:43.341Z,5.07
2022-08-22T06:03:56.485Z,5.00
2022-08-22T06:09:18.224Z,6.03
2022-08-22T06:14:58.243Z,5.23
2022-08-22T06:20:02.108Z,5.40
2022-08-22T06:25:25.377Z,5.03
2022-08-22T06:30:29.847Z,4.77
2022-08-22T06:36:03.128Z,4.37
2022-08-22T06:41:08.715Z,4.40
2022-08-22T06:46:14.880Z,4.30
2022-08-22T06:51:20.193Z,4.63
2022-08-22T06:56:39.960Z,5.47
2022-08-22T07:02:24.718Z,5.30
2022-08-22T07:07:28.241Z,3.93
2022-08-22T07:12:37.753Z,3.80
2022-08-22T07:17:53.449Z,4.57
2022-08-22T07:23:10.275Z,3.90
2022-08-22T07:28:51.253Z,3.70
2022-08-22T07:35:01.881Z,4.67
2022-08-22T07:40:31.918Z,4.67
2022-08-22T07:45:38.289Z,4.00
2022-08-22T07:51:17.543Z,3.20
2022-08-22T07:56:35.143Z,3.50
2022-08-22T08:01:39.438Z,2.63
2022-08-22T08:06:41.778Z,4.20
2022-08-22T08:11:44.930Z,6.23
2022-08-22T08:17:31.838Z,2.00
2022-08-22T08:22:34.765Z,1.93
2022-08-22T08:27:58.647Z,1.70
2022-08-22T08:33:25.423Z,1.87
2022-08-22T08:38:43.538Z,2.30
2022-08-22T08:44:38.889Z,1.80
2022-08-22T08:50:06.721Z,1.83
2022-08-22T08:55:22.822Z,2.40
2022-08-22T09:00:51.060Z,1.90
2022-08-22T09:06:22.716Z,1.10
2022-08-22T09:12:11.172Z,1.60
2022-08-22T09:17:39.480Z,1.60
2022-08-22T09:23:26.339Z,5.70
2022-08-22T09:29:07.719Z,1.53
2022-08-22T09:34:35.203Z,1.30
2022-08-22T09:40:05.227Z,1.77
2022-08-22T09:46:09.221Z,1.20
2022-08-22T09:51:39.562Z,1.30
2022-08-22T09:57:06.735Z,3.00
2022-08-22T10:02:50.250Z,1.97
2022-08-22T10:08:39.827Z,1.40
2022-08-22T10:14:03.862Z,1.30
2022-08-22T10:19:38.309Z,1.27
2022-08-22T10:24:59.892Z,1.50
2022-08-22T10:30:25.290Z,1.40
2022-08-22T10:35:57.424Z,1.07
2022-08-22T10:41:45.630Z,1.60
2022-08-22T10:47:06.505Z,1.80
2022-08-22T10:52:35.622Z,1.27
2022-08-22T10:58:13.465Z,1.30
2022-08-22T11:03:48.083Z,1.37
2022-08-22T11:09:36.989Z,1.77
2022-08-22T11:15:35.249Z,1.83
2022-08-22T11:21:02.080Z,1.57
2022-08-22T11:26:13.355Z,2.03
2022-08-22T11:32:05.729Z,1.33
2022-08-22T11:37:42.783Z,1.90
2022-08-22T11:42:55.824Z,1.30
2022-08-22T11:48:47.093Z,1.30
2022-08-22T11:54:30.975Z,1.00
2022-08-22T12:00:02.050Z,1.10
2022-08-22T12:05:29.977Z,1.57
2022-08-22T12:10:46.652Z,1.40
2022-08-22T12:16:21.517Z,1.90
2022-08-22T12:21:53.937Z,1.90
2022-08-22T12:27:29.010Z,1.20
2022-08-22T12:33:10.487Z,1.73
2022-08-22T12:39:27.521Z,1.33
2022-08-22T12:45:00.406Z,1.40
2022-08-22T12:50:41.882Z,1.20
2022-08-22T12:56:26.044Z,1.80
2022-08-22T13:01:40.156Z,1.40
2022-08-22T13:06:55.051Z,1.30
2022-08-22T13:12:26.688Z,1.27
2022-08-22T13:17:30.645Z,1.40
2022-08-22T13:22:39.008Z,1.57
2022-08-22T13:28:02.253Z,2.43
2022-08-22T13:33:22.226Z,1.43
2022-08-22T13:38:38.272Z,1.10
2022-08-22T13:44:06.918Z,1.83
2022-08-22T13:49:19.017Z,1.33
2022-08-22T13:55:12.257Z,1.93
2022-08-22T14:00:28.872Z,0.90
2022-08-22T14:05:58.988Z,1.47
2022-08-22T14:11:17.555Z,2.03
2022-08-22T14:16:33.642Z,1.40
2022-08-22T14:21:53.557Z,2.10
2022-08-22T14:27:15.831Z,2.07
2022-08-22T14:32:23.825Z,2.10
2022-08-22T14:37:38.914Z,1.77
2022-08-22T14:42:58.376Z,2.10
2022-08-22T14:48:31.401Z,1.53
2022-08-22T14:53:40.162Z,1.70
2022-08-22T14:59:07.482Z,1.63
2022-08-22T15:04:18.917Z,4.23
2022-08-22T15:09:49.098Z,1.67
2022-08-22T15:15:01.659Z,2.00
2022-08-22T15:20:36.375Z,1.97
2022-08-22T15:26:07.124Z,2.30
2022-08-22T15:31:18.957Z,2.10
2022-08-22T15:36:27.345Z,1.80
2022-08-22T15:41:44.642Z,1.70
2022-08-22T15:47:00.296Z,1.60
2022-08-22T15:52:01.898Z,1.90
2022-08-22T15:57:29.196Z,1.73
2022-08-22T16:02:56.882Z,2.40
2022-08-22T16:08:02.836Z,2.00
2022-08-22T16:13:38.061Z,1.57
2022-08-22T16:18:40.170Z,1.70
2022-08-22T16:23:51.054Z,1.40
2022-08-22T16:29:17.315Z,1.40
2022-08-22T16:34:42.207Z,2.07
2022-08-22T16:40:06.147Z,2.13
2022-08-22T16:45:39.144Z,2.37
2022-08-22T16:50:42.318Z,2.37
2022-08-22T16:56:25.173Z,2.20
2022-08-22T17:02:25.171Z,2.30
2022-08-22T17:08:10.860Z,2.60
2022-08-22T17:13:49.841Z,1.97
2022-08-22T17:19:12.959Z,2.10
2022-08-22T17:24:47.015Z,1.93
2022-08-22T17:30:22.100Z,2.00
2022-08-22T17:36:13.231Z,1.80
2022-08-22T17:42:02.118Z,1.87
2022-08-22T17:47:25.321Z,1.87
2022-08-22T17:52:46.721Z,1.90
2022-08-22T17:58:37.463Z,1.50
2022-08-22T18:03:46.829Z,2.00
2022-08-22T18:09:20.861Z,2.17
2022-08-22T18:15:18.842Z,1.50
2022-08-22T18:21:27.079Z,1.80
2022-08-22T18:27:03.659Z,1.90
2022-08-22T18:33:22.436Z,2.60
2022-08-22T18:38:39.371Z,1.57
2022-08-22T18:43:49.850Z,1.83
2022-08-22T18:49:14.118Z,1.83
2022-08-22T18:54:59.714Z,1.80
2022-08-22T19:00:40.314Z,1.50
2022-08-22T19:06:05.638Z,1.40
2022-08-22T19:11:47.600Z,1.90
2022-08-22T19:18:08.416Z,1.80
2022-08-22T19:23:46.826Z,2.43
2022-08-22T19:28:51.334Z,2.60
2022-08-22T19:34:25.913Z,1.83
2022-08-22T19:39:39.805Z,2.50
2022-08-22T19:44:55.752Z,2.00
2022-08-22T19:50:09.635Z,1.70
2022-08-22T19:55:38.702Z,2.10
2022-08-22T20:01:22.455Z,1.53
2022-08-22T20:06:44.713Z,1.80
2022-08-22T20:12:15.476Z,1.27
2022-08-22T20:17:26.627Z,1.20
2022-08-22T20:22:38.855Z,1.17
2022-08-22T20:27:50.635Z,1.33
2022-08-22T20:33:05.644Z,1.60
2022-08-22T20:38:15.707Z,1.57
2022-08-22T20:43:34.052Z,1.53
2022-08-22T20:48:43.582Z,2.13
2022-08-22T20:54:15.578Z,1.90
2022-08-22T20:59:41.711Z,1.77
2022-08-22T21:05:07.297Z,2.00
2022-08-22T21:10:46.041Z,1.90
2022-08-22T21:16:16.690Z,2.30
2022-08-22T21:21:24.978Z,1.80
2022-08-22T21:26:48.756Z,2.23
2022-08-22T21:32:08.826Z,2.20
2022-08-22T21:37:47.010Z,2.40
2022-08-22T21:43:13.046Z,2.43
2022-08-22T21:48:34.960Z,2.23
2022-08-22T21:53:36.670Z,2.00
2022-08-22T21:58:42.552Z,2.20
2022-08-22T22:03:44.298Z,2.73
2022-08-22T22:08:46.389Z,2.30
2022-08-22T22:13:48.970Z,2.43
2022-08-22T22:18:50.712Z,2.33
2022-08-22T22:23:52.884Z,2.87
2022-08-22T22:28:54.857Z,2.40
2022-08-22T22:33:56.566Z,2.77
2022-08-22T22:38:59.027Z,2.43
2022-08-22T22:44:01.288Z,2.20
2022-08-22T22:49:03.476Z,2.33
2022-08-22T22:54:05.640Z,2.30
2022-08-22T22:59:13.066Z,2.27
2022-08-22T23:04:16.283Z,2.80
2022-08-22T23:09:17.987Z,2.83
2022-08-22T23:14:19.869Z,2.10
2022-08-22T23:19:21.573Z,2.30
2022-08-22T23:24:26.495Z,3.10
2022-08-22T23:29:28.717Z,2.87
2022-08-22T23:34:43.837Z,2.40
2022-08-22T23:39:46.024Z,2.47
2022-08-22T23:44:47.917Z,2.67
2022-08-22T23:49:49.686Z,3.10
2022-08-22T23:54:51.532Z,2.90
2022-08-22T23:59:57.669Z,2.63
